sensor_id;sensor_type;location;lat;lon;timestamp;temperature;humidity
1594;DHT22;790;47.000;16.084;2022-10-12T00:00:49;11.50;99.90
1594;DHT22;790;47.000;16.084;2022-10-12T00:03:16;11.50;99.90
1594;DHT22;790;47.000;16.084;2022-10-12T00:05:44;11.50;99.90
1594;DHT22;790;47.000;16.084;2022-10-12T00:08:12;11.40;99.90
1594;DHT22;790;47.000;16.084;2022-10-12T00:10:40;11.40;99.90
1594;DHT22;790;47.000;16.084;2022-10-12T00:13:08;11.50;99.90
1594;DHT22;790;47.000;16.084;2022-10-12T00:15:36;11.50;99.90
1594;DHT22;790;47.000;16.084;2022-10-12T00:18:03;11.50;99.90
1594;DHT22;790;47.000;16.084;2022-10-12T00:20:30;11.50;99.90
1594;DHT22;790;47.000;16.084;2022-10-12T00:22:58;11.50;99.90
1594;DHT22;790;47.000;16.084;2022-10-12T00:25:26;11.50;99.90
1594;DHT22;790;47.000;16.084;2022-10-12T00:27:53;11.50;99.90
1594;DHT22;790;47.000;16.084;2022-10-12T00:30:20;11.50;99.90
1594;DHT22;790;47.000;16.084;2022-10-12T00:32:47;11.50;99.90
1594;DHT22;790;47.000;16.084;2022-10-12T00:35:14;11.60;99.90
1594;DHT22;790;47.000;16.084;2022-10-12T00:37:41;11.50;99.90
1594;DHT22;790;47.000;16.084;2022-10-12T00:40:10;11.60;99.90
1594;DHT22;790;47.000;16.084;2022-10-12T00:42:38;11.60;99.90
1594;DHT22;790;47.000;16.084;2022-10-12T00:45:07;11.70;99.90
1594;DHT22;790;47.000;16.084;2022-10-12T00:47:36;11.70;99.90
1594;DHT22;790;47.000;16.084;2022-10-12T00:50:08;11.60;99.90
1594;DHT22;790;47.000;16.084;2022-10-12T00:52:40;11.60;99.90
1594;DHT22;790;47.000;16.084;2022-10-12T00:55:10;11.70;99.90
1594;DHT22;790;47.000;16.084;2022-10-12T00:57:39;11.70;99.90
1594;DHT22;790;47.000;16.084;2022-10-12T01:00:09;11.80;99.90
1594;DHT22;790;47.000;16.084;2022-10-12T01:02:38;11.70;99.90
1594;DHT22;790;47.000;16.084;2022-10-12T01:05:07;11.70;99.90
1594;DHT22;790;47.000;16.084;2022-10-12T01:07:34;11.70;99.90
1594;DHT22;790;47.000;16.084;2022-10-12T01:10:02;11.70;99.90
1594;DHT22;790;47.000;16.084;2022-10-12T01:12:30;11.80;99.90
1594;DHT22;790;47.000;16.084;2022-10-12T01:14:59;11.80;99.90
1594;DHT22;790;47.000;16.084;2022-10-12T01:17:34;11.90;99.90
1594;DHT22;790;47.000;16.084;2022-10-12T01:20:38;11.80;99.90
1594;DHT22;790;47.000;16.084;2022-10-12T01:26:20;11.70;99.90
1594;DHT22;790;47.000;16.084;2022-10-12T01:28:57;11.70;99.90
1594;DHT22;790;47.000;16.084;2022-10-12T01:31:31;11.80;99.90
1594;DHT22;790;47.000;16.084;2022-10-12T01:34:01;11.80;99.90
1594;DHT22;790;47.000;16.084;2022-10-12T01:36:34;11.70;99.90
1594;DHT22;790;47.000;16.084;2022-10-12T01:39:06;11.70;99.90
1594;DHT22;790;47.000;16.084;2022-10-12T01:41:39;11.60;99.90
1594;DHT22;790;47.000;16.084;2022-10-12T01:44:08;11.60;99.90
1594;DHT22;790;47.000;16.084;2022-10-12T01:46:49;11.70;99.90
1594;DHT22;790;47.000;16.084;2022-10-12T01:49:22;11.80;99.90
1594;DHT22;790;47.000;16.084;2022-10-12T01:51:59;11.80;99.90
1594;DHT22;790;47.000;16.084;2022-10-12T01:54:33;11.80;99.90
1594;DHT22;790;47.000;16.084;2022-10-12T01:57:07;11.80;99.90
1594;DHT22;790;47.000;16.084;2022-10-12T01:59:44;11.80;99.90
1594;DHT22;790;47.000;16.084;2022-10-12T02:02:20;11.90;99.90
1594;DHT22;790;47.000;16.084;2022-10-12T02:04:53;11.90;99.90
1594;DHT22;790;47.000;16.084;2022-10-12T02:07:25;11.90;99.90
1594;DHT22;790;47.000;16.084;2022-10-12T02:09:56;11.90;99.90
1594;DHT22;790;47.000;16.084;2022-10-12T02:12:27;12.00;99.90
1594;DHT22;790;47.000;16.084;2022-10-12T02:14:59;12.00;99.90
1594;DHT22;790;47.000;16.084;2022-10-12T02:17:29;12.00;99.90
1594;DHT22;790;47.000;16.084;2022-10-12T02:19:59;12.00;99.90
1594;DHT22;790;47.000;16.084;2022-10-12T02:22:32;12.00;99.90
1594;DHT22;790;47.000;16.084;2022-10-12T02:25:03;12.00;99.90
1594;DHT22;790;47.000;16.084;2022-10-12T02:27:32;12.00;99.90
1594;DHT22;790;47.000;16.084;2022-10-12T02:30:00;12.00;99.90
1594;DHT22;790;47.000;16.084;2022-10-12T02:32:33;12.00;99.90
1594;DHT22;790;47.000;16.084;2022-10-12T02:35:05;12.10;99.90
1594;DHT22;790;47.000;16.084;2022-10-12T02:37:36;12.10;99.90
1594;DHT22;790;47.000;16.084;2022-10-12T02:40:09;12.10;99.90
1594;DHT22;790;47.000;16.084;2022-10-12T02:42:40;12.10;99.90
1594;DHT22;790;47.000;16.084;2022-10-12T02:45:10;12.10;99.90
1594;DHT22;790;47.000;16.084;2022-10-12T02:47:39;12.10;99.90
1594;DHT22;790;47.000;16.084;2022-10-12T02:50:09;12.00;99.90
1594;DHT22;790;47.000;16.084;2022-10-12T02:52:37;12.00;99.90
1594;DHT22;790;47.000;16.084;2022-10-12T02:55:05;12.00;99.90
1594;DHT22;790;47.000;16.084;2022-10-12T02:57:32;12.00;99.90
1594;DHT22;790;47.000;16.084;2022-10-12T03:00:00;12.00;99.90
1594;DHT22;790;47.000;16.084;2022-10-12T03:02:26;12.00;99.90
1594;DHT22;790;47.000;16.084;2022-10-12T03:04:55;12.00;99.90
1594;DHT22;790;47.000;16.084;2022-10-12T03:07:22;12.00;99.90
1594;DHT22;790;47.000;16.084;2022-10-12T03:09:49;12.10;99.90
1594;DHT22;790;47.000;16.084;2022-10-12T03:12:16;12.00;99.90
1594;DHT22;790;47.000;16.084;2022-10-12T03:14:43;12.00;99.90
1594;DHT22;790;47.000;16.084;2022-10-12T03:17:10;12.00;99.90
1594;DHT22;790;47.000;16.084;2022-10-12T03:19:37;11.90;99.90
1594;DHT22;790;47.000;16.084;2022-10-12T03:22:10;11.90;99.90
1594;DHT22;790;47.000;16.084;2022-10-12T03:24:37;12.00;99.90
1594;DHT22;790;47.000;16.084;2022-10-12T03:27:04;12.00;99.90
1594;DHT22;790;47.000;16.084;2022-10-12T03:29:31;11.90;99.90
1594;DHT22;790;47.000;16.084;2022-10-12T03:31:58;11.90;99.90
1594;DHT22;790;47.000;16.084;2022-10-12T03:34:25;11.90;99.90
1594;DHT22;790;47.000;16.084;2022-10-12T03:36:52;11.90;99.90
1594;DHT22;790;47.000;16.084;2022-10-12T03:39:20;11.80;99.90
1594;DHT22;790;47.000;16.084;2022-10-12T03:41:48;11.90;99.90
1594;DHT22;790;47.000;16.084;2022-10-12T03:44:15;11.80;99.90
1594;DHT22;790;47.000;16.084;2022-10-12T03:46:42;11.80;99.90
1594;DHT22;790;47.000;16.084;2022-10-12T03:49:09;11.80;99.90
1594;DHT22;790;47.000;16.084;2022-10-12T03:51:36;11.80;99.90
1594;DHT22;790;47.000;16.084;2022-10-12T03:54:03;11.80;99.90
1594;DHT22;790;47.000;16.084;2022-10-12T03:56:31;11.90;99.90
1594;DHT22;790;47.000;16.084;2022-10-12T03:58:58;11.90;99.90
1594;DHT22;790;47.000;16.084;2022-10-12T04:01:25;11.90;99.90
1594;DHT22;790;47.000;16.084;2022-10-12T04:03:53;11.90;99.90
1594;DHT22;790;47.000;16.084;2022-10-12T04:06:20;11.90;99.90
1594;DHT22;790;47.000;16.084;2022-10-12T04:08:47;11.90;99.90
1594;DHT22;790;47.000;16.084;2022-10-12T04:11:14;11.90;99.90
1594;DHT22;790;47.000;16.084;2022-10-12T04:13:43;12.00;99.90
1594;DHT22;790;47.000;16.084;2022-10-12T04:16:10;12.00;99.90
1594;DHT22;790;47.000;16.084;2022-10-12T04:18:37;12.00;99.90
1594;DHT22;790;47.000;16.084;2022-10-12T04:21:07;12.00;99.90
1594;DHT22;790;47.000;16.084;2022-10-12T04:23:35;11.90;99.90
1594;DHT22;790;47.000;16.084;2022-10-12T04:26:02;11.90;99.90
1594;DHT22;790;47.000;16.084;2022-10-12T04:28:29;11.90;99.90
1594;DHT22;790;47.000;16.084;2022-10-12T04:30:58;11.80;99.90
1594;DHT22;790;47.000;16.084;2022-10-12T04:33:25;11.90;99.90
1594;DHT22;790;47.000;16.084;2022-10-12T04:35:52;11.80;99.90
1594;DHT22;790;47.000;16.084;2022-10-12T04:38:19;11.80;99.90
1594;DHT22;790;47.000;16.084;2022-10-12T04:40:47;11.90;99.90
1594;DHT22;790;47.000;16.084;2022-10-12T04:43:15;11.90;99.90
1594;DHT22;790;47.000;16.084;2022-10-12T04:45:42;12.00;99.90
1594;DHT22;790;47.000;16.084;2022-10-12T04:48:11;12.00;99.90
1594;DHT22;790;47.000;16.084;2022-10-12T04:50:38;12.00;99.90
1594;DHT22;790;47.000;16.084;2022-10-12T04:53:05;12.00;99.90
1594;DHT22;790;47.000;16.084;2022-10-12T04:55:32;12.00;99.90
1594;DHT22;790;47.000;16.084;2022-10-12T04:57:59;12.00;99.90
1594;DHT22;790;47.000;16.084;2022-10-12T05:00:26;12.00;99.90
1594;DHT22;790;47.000;16.084;2022-10-12T05:02:53;12.00;99.90
1594;DHT22;790;47.000;16.084;2022-10-12T05:05:22;11.90;99.90
1594;DHT22;790;47.000;16.084;2022-10-12T05:07:49;11.90;99.90
1594;DHT22;790;47.000;16.084;2022-10-12T05:10:16;11.90;99.90
1594;DHT22;790;47.000;16.084;2022-10-12T05:12:43;11.90;99.90
1594;DHT22;790;47.000;16.084;2022-10-12T05:15:11;12.00;99.90
1594;DHT22;790;47.000;16.084;2022-10-12T05:17:38;12.00;99.90
1594;DHT22;790;47.000;16.084;2022-10-12T05:20:06;12.00;99.90
1594;DHT22;790;47.000;16.084;2022-10-12T05:22:35;12.00;99.90
1594;DHT22;790;47.000;16.084;2022-10-12T05:25:03;12.00;99.90
1594;DHT22;790;47.000;16.084;2022-10-12T05:27:30;12.00;99.90
1594;DHT22;790;47.000;16.084;2022-10-12T05:29:57;12.00;99.90
1594;DHT22;790;47.000;16.084;2022-10-12T05:32:24;12.10;99.90
1594;DHT22;790;47.000;16.084;2022-10-12T05:34:51;12.20;99.90
1594;DHT22;790;47.000;16.084;2022-10-12T05:37:19;12.10;99.90
1594;DHT22;790;47.000;16.084;2022-10-12T05:39:48;12.00;99.90
1594;DHT22;790;47.000;16.084;2022-10-12T05:42:16;11.90;99.90
1594;DHT22;790;47.000;16.084;2022-10-12T05:44:43;12.00;99.90
1594;DHT22;790;47.000;16.084;2022-10-12T05:47:11;11.90;99.90
1594;DHT22;790;47.000;16.084;2022-10-12T05:49:38;12.00;99.90
1594;DHT22;790;47.000;16.084;2022-10-12T05:52:06;12.00;99.90
1594;DHT22;790;47.000;16.084;2022-10-12T05:54:33;12.00;99.90
1594;DHT22;790;47.000;16.084;2022-10-12T05:57:01;12.00;99.90
1594;DHT22;790;47.000;16.084;2022-10-12T05:59:28;12.10;99.90
1594;DHT22;790;47.000;16.084;2022-10-12T06:01:55;12.20;99.90
1594;DHT22;790;47.000;16.084;2022-10-12T06:04:22;12.20;99.90
1594;DHT22;790;47.000;16.084;2022-10-12T06:06:49;12.20;99.90
1594;DHT22;790;47.000;16.084;2022-10-12T06:09:18;12.30;99.90
1594;DHT22;790;47.000;16.084;2022-10-12T06:11:45;12.30;99.90
1594;DHT22;790;47.000;16.084;2022-10-12T06:14:13;12.30;99.90
1594;DHT22;790;47.000;16.084;2022-10-12T06:16:41;12.20;99.90
1594;DHT22;790;47.000;16.084;2022-10-12T06:19:09;12.20;99.90
1594;DHT22;790;47.000;16.084;2022-10-12T06:21:36;12.30;99.90
1594;DHT22;790;47.000;16.084;2022-10-12T06:24:03;12.30;99.90
1594;DHT22;790;47.000;16.084;2022-10-12T06:26:31;12.30;99.90
1594;DHT22;790;47.000;16.084;2022-10-12T06:28:58;12.40;99.90
1594;DHT22;790;47.000;16.084;2022-10-12T06:31:27;12.40;99.90
1594;DHT22;790;47.000;16.084;2022-10-12T06:33:55;12.50;99.90
1594;DHT22;790;47.000;16.084;2022-10-12T06:36:22;12.50;99.90
1594;DHT22;790;47.000;16.084;2022-10-12T06:38:49;12.60;99.90
1594;DHT22;790;47.000;16.084;2022-10-12T06:41:16;12.70;99.90
1594;DHT22;790;47.000;16.084;2022-10-12T06:43:43;12.80;99.90
1594;DHT22;790;47.000;16.084;2022-10-12T06:46:10;12.90;99.90
1594;DHT22;790;47.000;16.084;2022-10-12T06:48:39;13.00;99.90
1594;DHT22;790;47.000;16.084;2022-10-12T06:51:06;13.00;99.90
1594;DHT22;790;47.000;16.084;2022-10-12T06:53:33;13.10;99.90
1594;DHT22;790;47.000;16.084;2022-10-12T06:56:05;13.10;99.90
1594;DHT22;790;47.000;16.084;2022-10-12T06:58:32;13.10;99.90
1594;DHT22;790;47.000;16.084;2022-10-12T07:01:01;13.10;99.90
1594;DHT22;790;47.000;16.084;2022-10-12T07:03:28;13.10;99.90
1594;DHT22;790;47.000;16.084;2022-10-12T07:06:04;13.20;99.90
1594;DHT22;790;47.000;16.084;2022-10-12T07:08:32;13.30;99.90
1594;DHT22;790;47.000;16.084;2022-10-12T07:11:00;13.30;99.90
1594;DHT22;790;47.000;16.084;2022-10-12T07:13:27;13.40;99.90
1594;DHT22;790;47.000;16.084;2022-10-12T07:15:54;13.40;99.90
1594;DHT22;790;47.000;16.084;2022-10-12T07:18:21;13.40;99.90
1594;DHT22;790;47.000;16.084;2022-10-12T07:20:49;13.50;99.90
1594;DHT22;790;47.000;16.084;2022-10-12T07:23:18;13.50;99.90
1594;DHT22;790;47.000;16.084;2022-10-12T07:25:48;13.60;99.90
1594;DHT22;790;47.000;16.084;2022-10-12T07:28:15;13.60;99.90
1594;DHT22;790;47.000;16.084;2022-10-12T07:30:42;13.70;99.90
1594;DHT22;790;47.000;16.084;2022-10-12T07:33:09;13.70;99.90
1594;DHT22;790;47.000;16.084;2022-10-12T07:35:36;13.90;99.90
1594;DHT22;790;47.000;16.084;2022-10-12T07:38:04;14.00;99.90
1594;DHT22;790;47.000;16.084;2022-10-12T07:40:32;14.00;99.90
1594;DHT22;790;47.000;16.084;2022-10-12T07:42:59;14.10;99.90
1594;DHT22;790;47.000;16.084;2022-10-12T07:45:27;14.20;99.90
1594;DHT22;790;47.000;16.084;2022-10-12T07:47:54;14.30;99.90
1594;DHT22;790;47.000;16.084;2022-10-12T07:50:21;14.40;99.90
1594;DHT22;790;47.000;16.084;2022-10-12T07:52:50;14.60;99.90
1594;DHT22;790;47.000;16.084;2022-10-12T07:55:17;14.70;99.90
1594;DHT22;790;47.000;16.084;2022-10-12T07:57:45;14.80;99.90
1594;DHT22;790;47.000;16.084;2022-10-12T08:00:12;14.80;99.90
1594;DHT22;790;47.000;16.084;2022-10-12T08:02:40;14.90;99.90
1594;DHT22;790;47.000;16.084;2022-10-12T08:05:07;15.00;99.90
1594;DHT22;790;47.000;16.084;2022-10-12T08:07:35;15.00;99.90
1594;DHT22;790;47.000;16.084;2022-10-12T08:10:02;15.10;99.90
1594;DHT22;790;47.000;16.084;2022-10-12T08:12:29;15.10;99.90
1594;DHT22;790;47.000;16.084;2022-10-12T08:14:58;15.20;99.90
1594;DHT22;790;47.000;16.084;2022-10-12T08:17:25;15.20;99.90
1594;DHT22;790;47.000;16.084;2022-10-12T08:19:52;15.20;99.90
1594;DHT22;790;47.000;16.084;2022-10-12T08:22:19;15.30;99.90
1594;DHT22;790;47.000;16.084;2022-10-12T08:24:46;15.30;99.90
1594;DHT22;790;47.000;16.084;2022-10-12T08:27:13;15.30;99.90
1594;DHT22;790;47.000;16.084;2022-10-12T08:29:40;15.40;99.90
1594;DHT22;790;47.000;16.084;2022-10-12T08:32:08;15.40;99.90
1594;DHT22;790;47.000;16.084;2022-10-12T08:34:35;15.50;99.90
1594;DHT22;790;47.000;16.084;2022-10-12T08:37:02;15.50;99.90
1594;DHT22;790;47.000;16.084;2022-10-12T08:39:29;15.60;99.90
1594;DHT22;790;47.000;16.084;2022-10-12T08:42:07;15.60;99.90
1594;DHT22;790;47.000;16.084;2022-10-12T08:44:56;15.60;99.90
1594;DHT22;790;47.000;16.084;2022-10-12T08:47:32;15.80;99.90
1594;DHT22;790;47.000;16.084;2022-10-12T08:50:04;15.70;99.90
1594;DHT22;790;47.000;16.084;2022-10-12T08:52:37;15.70;99.90
1594;DHT22;790;47.000;16.084;2022-10-12T08:55:22;15.80;99.90
1594;DHT22;790;47.000;16.084;2022-10-12T08:57:50;15.90;99.90
1594;DHT22;790;47.000;16.084;2022-10-12T09:00:17;16.00;99.90
1594;DHT22;790;47.000;16.084;2022-10-12T09:03:04;16.10;99.90
1594;DHT22;790;47.000;16.084;2022-10-12T09:05:36;16.10;99.90
1594;DHT22;790;47.000;16.084;2022-10-12T09:08:09;16.30;99.90
1594;DHT22;790;47.000;16.084;2022-10-12T09:10:44;16.30;99.90
1594;DHT22;790;47.000;16.084;2022-10-12T09:13:24;16.40;99.90
1594;DHT22;790;47.000;16.084;2022-10-12T09:15:59;16.40;99.90
1594;DHT22;790;47.000;16.084;2022-10-12T09:18:35;16.60;99.90
1594;DHT22;790;47.000;16.084;2022-10-12T09:21:04;16.70;99.90
1594;DHT22;790;47.000;16.084;2022-10-12T09:23:37;16.80;99.90
1594;DHT22;790;47.000;16.084;2022-10-12T09:26:13;16.80;99.90
1594;DHT22;790;47.000;16.084;2022-10-12T09:28:43;16.90;99.90
1594;DHT22;790;47.000;16.084;2022-10-12T09:31:27;16.90;99.90
1594;DHT22;790;47.000;16.084;2022-10-12T09:33:58;17.10;99.90
1594;DHT22;790;47.000;16.084;2022-10-12T09:36:29;17.20;99.90
1594;DHT22;790;47.000;16.084;2022-10-12T09:38:58;17.30;99.90
1594;DHT22;790;47.000;16.084;2022-10-12T09:41:30;17.40;99.90
1594;DHT22;790;47.000;16.084;2022-10-12T09:44:00;17.40;99.90
1594;DHT22;790;47.000;16.084;2022-10-12T09:46:38;17.40;99.90
1594;DHT22;790;47.000;16.084;2022-10-12T09:49:08;17.50;99.90
1594;DHT22;790;47.000;16.084;2022-10-12T09:51:35;17.50;99.90
1594;DHT22;790;47.000;16.084;2022-10-12T09:54:03;17.40;99.90
1594;DHT22;790;47.000;16.084;2022-10-12T09:56:36;17.40;99.90
1594;DHT22;790;47.000;16.084;2022-10-12T09:59:06;17.40;99.90
1594;DHT22;790;47.000;16.084;2022-10-12T10:01:34;17.30;99.90
1594;DHT22;790;47.000;16.084;2022-10-12T10:04:11;17.30;99.90
1594;DHT22;790;47.000;16.084;2022-10-12T10:06:41;17.40;99.90
1594;DHT22;790;47.000;16.084;2022-10-12T10:09:29;17.60;99.90
1594;DHT22;790;47.000;16.084;2022-10-12T10:11:57;17.60;99.90
1594;DHT22;790;47.000;16.084;2022-10-12T10:14:36;17.70;99.90
1594;DHT22;790;47.000;16.084;2022-10-12T10:17:04;17.80;99.90
1594;DHT22;790;47.000;16.084;2022-10-12T10:19:32;17.90;99.90
1594;DHT22;790;47.000;16.084;2022-10-12T10:22:04;17.90;99.90
1594;DHT22;790;47.000;16.084;2022-10-12T10:24:31;17.90;99.90
1594;DHT22;790;47.000;16.084;2022-10-12T10:27:01;17.90;99.90
1594;DHT22;790;47.000;16.084;2022-10-12T10:29:38;17.90;99.90
1594;DHT22;790;47.000;16.084;2022-10-12T10:32:09;17.90;99.90
1594;DHT22;790;47.000;16.084;2022-10-12T10:34:42;18.00;99.90
1594;DHT22;790;47.000;16.084;2022-10-12T10:37:16;18.10;99.90
1594;DHT22;790;47.000;16.084;2022-10-12T10:39:46;18.20;99.90
1594;DHT22;790;47.000;16.084;2022-10-12T10:42:18;18.20;99.90
1594;DHT22;790;47.000;16.084;2022-10-12T10:44:48;18.20;99.90
1594;DHT22;790;47.000;16.084;2022-10-12T10:47:17;18.20;99.90
1594;DHT22;790;47.000;16.084;2022-10-12T10:49:48;18.20;99.90
1594;DHT22;790;47.000;16.084;2022-10-12T10:52:21;18.30;99.90
1594;DHT22;790;47.000;16.084;2022-10-12T10:55:05;18.40;99.90
1594;DHT22;790;47.000;16.084;2022-10-12T10:57:39;18.50;99.90
1594;DHT22;790;47.000;16.084;2022-10-12T11:00:12;18.50;99.90
1594;DHT22;790;47.000;16.084;2022-10-12T11:02:45;18.60;99.90
1594;DHT22;790;47.000;16.084;2022-10-12T11:05:19;18.60;99.90
1594;DHT22;790;47.000;16.084;2022-10-12T11:07:50;18.60;99.90
1594;DHT22;790;47.000;16.084;2022-10-12T11:10:26;18.60;99.90
1594;DHT22;790;47.000;16.084;2022-10-12T11:13:02;18.70;99.90
1594;DHT22;790;47.000;16.084;2022-10-12T11:15:37;18.70;99.90
1594;DHT22;790;47.000;16.084;2022-10-12T11:18:11;18.80;99.90
1594;DHT22;790;47.000;16.084;2022-10-12T11:20:49;18.90;99.90
1594;DHT22;790;47.000;16.084;2022-10-12T11:23:29;19.00;99.90
1594;DHT22;790;47.000;16.084;2022-10-12T11:26:17;19.10;99.90
1594;DHT22;790;47.000;16.084;2022-10-12T11:28:46;19.10;99.90
1594;DHT22;790;47.000;16.084;2022-10-12T11:31:17;19.20;99.90
1594;DHT22;790;47.000;16.084;2022-10-12T11:33:46;19.30;99.90
1594;DHT22;790;47.000;16.084;2022-10-12T11:36:18;19.30;99.90
1594;DHT22;790;47.000;16.084;2022-10-12T11:38:48;19.40;99.90
1594;DHT22;790;47.000;16.084;2022-10-12T11:41:19;19.50;99.90
1594;DHT22;790;47.000;16.084;2022-10-12T11:43:51;19.60;99.90
1594;DHT22;790;47.000;16.084;2022-10-12T11:46:26;19.70;99.90
1594;DHT22;790;47.000;16.084;2022-10-12T11:49:00;19.70;99.90
1594;DHT22;790;47.000;16.084;2022-10-12T11:51:29;19.80;99.90
1594;DHT22;790;47.000;16.084;2022-10-12T11:54:00;19.80;99.90
1594;DHT22;790;47.000;16.084;2022-10-12T11:56:33;19.80;99.90
1594;DHT22;790;47.000;16.084;2022-10-12T11:59:04;19.90;99.90
1594;DHT22;790;47.000;16.084;2022-10-12T12:01:57;20.00;99.90
1594;DHT22;790;47.000;16.084;2022-10-12T12:04:28;19.90;99.90
1594;DHT22;790;47.000;16.084;2022-10-12T12:07:00;19.90;99.90
1594;DHT22;790;47.000;16.084;2022-10-12T12:09:37;19.90;99.90
1594;DHT22;790;47.000;16.084;2022-10-12T12:12:17;20.00;99.90
1594;DHT22;790;47.000;16.084;2022-10-12T12:15:06;20.00;99.90
1594;DHT22;790;47.000;16.084;2022-10-12T12:17:35;20.00;99.90
1594;DHT22;790;47.000;16.084;2022-10-12T12:23:24;20.00;99.90
1594;DHT22;790;47.000;16.084;2022-10-12T12:26:05;19.90;99.90
1594;DHT22;790;47.000;16.084;2022-10-12T12:28:33;19.80;99.90
1594;DHT22;790;47.000;16.084;2022-10-12T12:31:02;19.80;99.90
1594;DHT22;790;47.000;16.084;2022-10-12T12:33:31;19.90;99.90
1594;DHT22;790;47.000;16.084;2022-10-12T12:36:01;19.90;99.90
1594;DHT22;790;47.000;16.084;2022-10-12T12:38:32;19.90;99.90
1594;DHT22;790;47.000;16.084;2022-10-12T12:41:08;19.90;99.90
1594;DHT22;790;47.000;16.084;2022-10-12T12:43:52;19.90;99.90
1594;DHT22;790;47.000;16.084;2022-10-12T12:46:22;20.00;99.90
1594;DHT22;790;47.000;16.084;2022-10-12T12:48:57;20.00;99.90
1594;DHT22;790;47.000;16.084;2022-10-12T12:51:33;20.00;99.90
1594;DHT22;790;47.000;16.084;2022-10-12T12:54:05;19.90;99.90
1594;DHT22;790;47.000;16.084;2022-10-12T12:56:39;19.90;99.90
1594;DHT22;790;47.000;16.084;2022-10-12T12:59:47;19.90;99.90
1594;DHT22;790;47.000;16.084;2022-10-12T13:06:03;20.00;99.90
1594;DHT22;790;47.000;16.084;2022-10-12T13:08:42;20.10;99.90
1594;DHT22;790;47.000;16.084;2022-10-12T13:11:44;20.20;99.90
1594;DHT22;790;47.000;16.084;2022-10-12T13:17:18;20.30;99.90
1594;DHT22;790;47.000;16.084;2022-10-12T13:19:48;20.40;99.90
1594;DHT22;790;47.000;16.084;2022-10-12T13:22:20;20.50;99.90
1594;DHT22;790;47.000;16.084;2022-10-12T13:24:50;20.50;99.90
1594;DHT22;790;47.000;16.084;2022-10-12T13:27:23;20.60;99.90
1594;DHT22;790;47.000;16.084;2022-10-12T13:29:58;20.60;99.90
1594;DHT22;790;47.000;16.084;2022-10-12T13:32:36;20.60;99.90
1594;DHT22;790;47.000;16.084;2022-10-12T13:35:13;20.70;99.90
1594;DHT22;790;47.000;16.084;2022-10-12T13:37:40;20.70;99.90
1594;DHT22;790;47.000;16.084;2022-10-12T13:40:26;20.80;99.90
1594;DHT22;790;47.000;16.084;2022-10-12T13:42:55;20.80;99.90
1594;DHT22;790;47.000;16.084;2022-10-12T13:45:22;20.80;99.90
1594;DHT22;790;47.000;16.084;2022-10-12T13:47:49;20.70;99.90
1594;DHT22;790;47.000;16.084;2022-10-12T13:50:17;20.60;99.90
1594;DHT22;790;47.000;16.084;2022-10-12T13:52:52;20.60;99.90
1594;DHT22;790;47.000;16.084;2022-10-12T13:55:23;20.60;99.90
1594;DHT22;790;47.000;16.084;2022-10-12T13:57:51;20.60;99.90
1594;DHT22;790;47.000;16.084;2022-10-12T14:00:21;20.50;99.90
1594;DHT22;790;47.000;16.084;2022-10-12T14:02:54;20.50;99.90
1594;DHT22;790;47.000;16.084;2022-10-12T14:05:24;20.50;99.90
1594;DHT22;790;47.000;16.084;2022-10-12T14:07:53;20.50;99.90
1594;DHT22;790;47.000;16.084;2022-10-12T14:10:25;20.50;99.90
1594;DHT22;790;47.000;16.084;2022-10-12T14:12:52;20.60;99.90
1594;DHT22;790;47.000;16.084;2022-10-12T14:15:24;20.60;99.90
1594;DHT22;790;47.000;16.084;2022-10-12T14:17:51;20.60;99.90
1594;DHT22;790;47.000;16.084;2022-10-12T14:20:27;20.60;99.90
1594;DHT22;790;47.000;16.084;2022-10-12T14:22:56;20.50;99.90
1594;DHT22;790;47.000;16.084;2022-10-12T14:25:26;20.40;99.90
1594;DHT22;790;47.000;16.084;2022-10-12T14:27:54;20.40;99.90
1594;DHT22;790;47.000;16.084;2022-10-12T14:30:25;20.20;99.90
1594;DHT22;790;47.000;16.084;2022-10-12T14:33:05;20.00;99.90
1594;DHT22;790;47.000;16.084;2022-10-12T14:35:35;20.00;99.90
1594;DHT22;790;47.000;16.084;2022-10-12T14:38:35;19.90;99.90
1594;DHT22;790;47.000;16.084;2022-10-12T14:41:31;19.80;99.90
1594;DHT22;790;47.000;16.084;2022-10-12T14:44:09;19.70;99.90
1594;DHT22;790;47.000;16.084;2022-10-12T14:46:40;19.60;99.90
1594;DHT22;790;47.000;16.084;2022-10-12T14:49:15;19.40;99.90
1594;DHT22;790;47.000;16.084;2022-10-12T14:51:43;19.30;99.90
1594;DHT22;790;47.000;16.084;2022-10-12T14:54:10;19.20;99.90
1594;DHT22;790;47.000;16.084;2022-10-12T14:56:38;19.10;99.90
1594;DHT22;790;47.000;16.084;2022-10-12T14:59:05;18.90;99.90
1594;DHT22;790;47.000;16.084;2022-10-12T15:01:32;18.70;99.90
1594;DHT22;790;47.000;16.084;2022-10-12T15:04:00;18.60;99.90
1594;DHT22;790;47.000;16.084;2022-10-12T15:06:27;18.50;99.90
1594;DHT22;790;47.000;16.084;2022-10-12T15:08:54;18.50;99.90
1594;DHT22;790;47.000;16.084;2022-10-12T15:11:21;18.40;99.90
1594;DHT22;790;47.000;16.084;2022-10-12T15:13:48;18.30;99.90
1594;DHT22;790;47.000;16.084;2022-10-12T15:16:19;18.20;99.90
1594;DHT22;790;47.000;16.084;2022-10-12T15:18:47;18.10;99.90
1594;DHT22;790;47.000;16.084;2022-10-12T15:21:16;17.90;99.90
1594;DHT22;790;47.000;16.084;2022-10-12T15:23:43;17.80;99.90
1594;DHT22;790;47.000;16.084;2022-10-12T15:26:12;17.60;99.90
1594;DHT22;790;47.000;16.084;2022-10-12T15:28:40;17.50;99.90
1594;DHT22;790;47.000;16.084;2022-10-12T15:31:09;17.40;99.90
1594;DHT22;790;47.000;16.084;2022-10-12T15:33:37;17.20;99.90
1594;DHT22;790;47.000;16.084;2022-10-12T15:36:05;17.20;99.90
1594;DHT22;790;47.000;16.084;2022-10-12T15:38:35;17.10;99.90
1594;DHT22;790;47.000;16.084;2022-10-12T15:41:03;17.20;99.90
1594;DHT22;790;47.000;16.084;2022-10-12T15:43:31;17.10;99.90
1594;DHT22;790;47.000;16.084;2022-10-12T15:45:58;17.10;99.90
1594;DHT22;790;47.000;16.084;2022-10-12T15:48:25;17.00;99.90
1594;DHT22;790;47.000;16.084;2022-10-12T15:50:53;16.90;99.90
1594;DHT22;790;47.000;16.084;2022-10-12T15:53:22;16.90;99.90
1594;DHT22;790;47.000;16.084;2022-10-12T15:55:52;16.80;99.90
1594;DHT22;790;47.000;16.084;2022-10-12T15:58:19;16.80;99.90
1594;DHT22;790;47.000;16.084;2022-10-12T16:00:47;16.60;99.90
1594;DHT22;790;47.000;16.084;2022-10-12T16:03:17;16.50;99.90
1594;DHT22;790;47.000;16.084;2022-10-12T16:05:44;16.40;99.90
1594;DHT22;790;47.000;16.084;2022-10-12T16:08:12;16.30;99.90
1594;DHT22;790;47.000;16.084;2022-10-12T16:10:41;16.20;99.90
1594;DHT22;790;47.000;16.084;2022-10-12T16:13:11;16.10;99.90
1594;DHT22;790;47.000;16.084;2022-10-12T16:15:40;16.00;99.90
1594;DHT22;790;47.000;16.084;2022-10-12T16:18:09;16.00;99.90
1594;DHT22;790;47.000;16.084;2022-10-12T16:20:38;15.90;99.90
1594;DHT22;790;47.000;16.084;2022-10-12T16:23:08;15.80;99.90
1594;DHT22;790;47.000;16.084;2022-10-12T16:25:38;15.70;99.90
1594;DHT22;790;47.000;16.084;2022-10-12T16:28:05;15.60;99.90
1594;DHT22;790;47.000;16.084;2022-10-12T16:30:34;15.40;99.90
1594;DHT22;790;47.000;16.084;2022-10-12T16:33:01;15.40;99.90
1594;DHT22;790;47.000;16.084;2022-10-12T16:35:28;15.30;99.90